Time;durP1;ratioP1;P1;durP2;ratioP2;P2;SDS_P1;SDS_P2;PMS_P1;PMS_P2;Temp;Humidity;BMP_temperature;BMP_pressure;BME280_temperature;BME280_humidity;BME280_pressure;Samples;Min_cycle;Max_cycle;Signal;HPM_P1;HPM_P2
2023/03/06 00:01:17;;;;;;;31.70;15.43;;;;;;;;;;4989698;28;20058;-70
2023/03/06 00:03:42;;;;;;;37.05;15.55;;;;;;;;;;4983592;28;20050;-71
2023/03/06 00:06:08;;;;;;;30.73;15.35;;;;;;;;;;4987442;28;20105;-70
2023/03/06 00:08:33;;;;;;;33.97;16.25;;;;;;;;;;4984460;28;20034;-69
2023/03/06 00:10:59;;;;;;;32.55;15.32;;;;;;;;;;4993694;28;20058;-70
2023/03/06 00:13:28;;;;;;;32.08;15.60;;;;;;;;;;4982817;28;20038;-71
2023/03/06 00:15:58;;;;;;;38.95;16.50;;;;;;;;;;4985709;28;20125;-72
2023/03/06 00:18:23;;;;;;;34.58;16.45;;;;;;;;;;4987805;28;20069;-70
2023/03/06 00:20:48;;;;;;;41.75;16.80;;;;;;;;;;4985358;28;20427;-72
2023/03/06 00:23:14;;;;;;;29.63;15.75;;;;;;;;;;4984169;28;20192;-70
2023/03/06 00:25:44;;;;;;;35.08;16.15;;;;;;;;;;4982044;28;20046;-72
2023/03/06 00:28:11;;;;;;;31.33;15.13;;;;;;;;;;4989791;28;20515;-72
2023/03/06 00:30:36;;;;;;;36.70;16.67;;;;;;;;;;4984855;28;20073;-71
2023/03/06 00:33:02;;;;;;;35.28;15.48;;;;;;;;;;4988132;28;20132;-70
2023/03/06 00:35:29;;;;;;;32.08;16.15;;;;;;;;;;4995628;28;20848;-70
2023/03/06 00:37:56;;;;;;;30.90;15.45;;;;;;;;;;4984079;28;20125;-71
2023/03/06 00:40:22;;;;;;;31.65;15.32;;;;;;;;;;4987819;28;20056;-71
2023/03/06 00:42:47;;;;;;;33.03;16.10;;;;;;;;;;4991623;28;20046;-71
2023/03/06 00:45:13;;;;;;;29.48;15.95;;;;;;;;;;4990357;28;20404;-69
2023/03/06 00:47:39;;;;;;;30.98;15.48;;;;;;;;;;4988859;28;20080;-71
2023/03/06 00:50:05;;;;;;;39.10;17.75;;;;;;;;;;4986578;28;20527;-71
2023/03/06 00:52:31;;;;;;;36.80;17.63;;;;;;;;;;4984142;28;20054;-70
2023/03/06 00:54:56;;;;;;;35.95;16.27;;;;;;;;;;4978686;28;20386;-70
2023/03/06 00:57:23;;;;;;;36.00;17.23;;;;;;;;;;4980221;28;20042;-70
2023/03/06 00:59:49;;;;;;;35.25;16.90;;;;;;;;;;4980023;28;20152;-70
2023/03/06 01:02:14;;;;;;;36.30;17.25;;;;;;;;;;4996266;28;20129;-71
2023/03/06 01:04:40;;;;;;;32.17;15.40;;;;;;;;;;4978271;28;20046;-70
2023/03/06 01:07:05;;;;;;;33.47;15.07;;;;;;;;;;4981011;28;20497;-71
2023/03/06 01:09:31;;;;;;;33.90;15.93;;;;;;;;;;4988109;28;20061;-70
2023/03/06 01:11:56;;;;;;;34.10;15.50;;;;;;;;;;4980521;28;20124;-71
2023/03/06 01:14:22;;;;;;;33.25;15.90;;;;;;;;;;4987942;28;20089;-72
2023/03/06 01:16:47;;;;;;;37.78;15.05;;;;;;;;;;4991402;28;20046;-70
2023/03/06 01:19:16;;;;;;;39.63;16.25;;;;;;;;;;4997197;28;20108;-70
2023/03/06 01:21:41;;;;;;;36.88;15.77;;;;;;;;;;4984332;28;20062;-70
2023/03/06 01:24:07;;;;;;;32.95;14.50;;;;;;;;;;4990832;28;20054;-70
2023/03/06 01:26:33;;;;;;;32.90;15.57;;;;;;;;;;4987719;28;20111;-71
2023/03/06 01:28:59;;;;;;;36.00;15.25;;;;;;;;;;4990198;28;20042;-70
2023/03/06 01:31:25;;;;;;;31.88;15.70;;;;;;;;;;4988077;28;20050;-70
2023/03/06 01:33:51;;;;;;;31.02;16.52;;;;;;;;;;5004381;28;20042;-70
2023/03/06 01:36:16;;;;;;;45.42;17.63;;;;;;;;;;4999575;28;20057;-70
2023/03/06 01:38:42;;;;;;;36.20;16.63;;;;;;;;;;4987112;28;20054;-71
2023/03/06 01:41:09;;;;;;;34.90;16.52;;;;;;;;;;4983266;28;20138;-72
2023/03/06 01:43:37;;;;;;;34.95;18.13;;;;;;;;;;4987167;28;20046;-71
2023/03/06 01:46:29;;;;;;;37.60;17.35;;;;;;;;;;4985608;28;20057;-71
2023/03/06 01:49:22;;;;;;;37.45;17.48;;;;;;;;;;4985803;28;20057;-71
2023/03/06 01:51:53;;;;;;;40.22;17.90;;;;;;;;;;4982689;28;20054;-70
2023/03/06 01:54:25;;;;;;;42.85;17.83;;;;;;;;;;4983409;28;20046;-70
2023/03/06 01:56:55;;;;;;;36.83;16.45;;;;;;;;;;4991680;28;20038;-71
2023/03/06 01:59:22;;;;;;;33.22;15.57;;;;;;;;;;5007909;28;20096;-70
2023/03/06 02:01:49;;;;;;;39.17;17.35;;;;;;;;;;4986058;28;20050;-71
2023/03/06 02:04:16;;;;;;;34.10;15.25;;;;;;;;;;4983934;28;20064;-71
2023/03/06 02:06:42;;;;;;;35.42;17.05;;;;;;;;;;4985140;28;20778;-70
2023/03/06 02:09:08;;;;;;;33.38;17.50;;;;;;;;;;4984194;28;20497;-69
2023/03/06 02:11:34;;;;;;;34.42;16.95;;;;;;;;;;4988187;28;20066;-70
2023/03/06 02:13:59;;;;;;;37.20;16.77;;;;;;;;;;4979829;28;20050;-72
2023/03/06 02:16:28;;;;;;;38.58;16.98;;;;;;;;;;4980247;28;20074;-72
2023/03/06 02:18:54;;;;;;;35.00;15.80;;;;;;;;;;4980307;28;20054;-73
2023/03/06 02:21:25;;;;;;;34.95;16.10;;;;;;;;;;4986918;28;20050;-70
2023/03/06 02:24:24;;;;;;;34.47;15.35;;;;;;;;;;4991328;28;20050;-69
2023/03/06 02:26:51;;;;;;;32.10;14.95;;;;;;;;;;4987859;28;20054;-70
2023/03/06 02:29:22;;;;;;;35.80;17.02;;;;;;;;;;4986903;28;20049;-71
2023/03/06 02:31:48;;;;;;;37.83;16.95;;;;;;;;;;4991319;28;20042;-70
2023/03/06 02:34:13;;;;;;;27.98;15.68;;;;;;;;;;4995956;28;20050;-71
2023/03/06 02:36:46;;;;;;;30.65;14.77;;;;;;;;;;4987002;28;20853;-71
2023/03/06 02:39:13;;;;;;;35.28;15.75;;;;;;;;;;4974940;28;20042;-70
2023/03/06 02:41:39;;;;;;;31.90;15.68;;;;;;;;;;4973959;28;20623;-71
2023/03/06 02:44:06;;;;;;;31.50;14.85;;;;;;;;;;4990309;28;20058;-71
2023/03/06 02:46:31;;;;;;;34.33;15.63;;;;;;;;;;4982234;28;20061;-70
2023/03/06 02:48:57;;;;;;;32.63;16.05;;;;;;;;;;4985398;28;20649;-70
2023/03/06 02:51:22;;;;;;;35.13;16.00;;;;;;;;;;4986209;28;20038;-70
2023/03/06 02:53:48;;;;;;;33.13;15.52;;;;;;;;;;4985832;28;20077;-70
2023/03/06 02:56:14;;;;;;;32.38;15.30;;;;;;;;;;4991023;28;20041;-71
2023/03/06 02:58:41;;;;;;;37.03;15.95;;;;;;;;;;4989485;28;20057;-72
2023/03/06 03:01:06;;;;;;;38.58;16.08;;;;;;;;;;4991173;28;20119;-72
2023/03/06 03:03:33;;;;;;;37.28;16.58;;;;;;;;;;4980525;28;20524;-70
2023/03/06 03:05:59;;;;;;;34.65;15.45;;;;;;;;;;4978960;28;20050;-70
2023/03/06 03:08:28;;;;;;;39.15;16.75;;;;;;;;;;4976612;28;20085;-71
2023/03/06 03:10:58;;;;;;;41.65;17.30;;;;;;;;;;4976761;28;20046;-70
2023/03/06 03:13:27;;;;;;;35.80;16.02;;;;;;;;;;4984784;28;20084;-69
2023/03/06 03:16:14;;;;;;;38.72;16.98;;;;;;;;;;4979322;28;20129;-71
2023/03/06 03:18:39;;;;;;;38.00;16.40;;;;;;;;;;4996352;28;20137;-71
2023/03/06 03:21:12;;;;;;;39.72;17.63;;;;;;;;;;4983106;28;20056;-71
2023/03/06 03:23:38;;;;;;;43.55;17.98;;;;;;;;;;4995632;28;20478;-73
2023/03/06 03:26:11;;;;;;;47.50;18.40;;;;;;;;;;4983853;28;20054;-71
2023/03/06 03:28:40;;;;;;;39.38;17.15;;;;;;;;;;4991529;28;20045;-71
2023/03/06 03:31:07;;;;;;;38.70;18.40;;;;;;;;;;4995885;28;20038;-72
2023/03/06 03:33:34;;;;;;;35.97;16.42;;;;;;;;;;4996665;28;20041;-71
2023/03/06 03:36:01;;;;;;;38.20;17.20;;;;;;;;;;4978524;28;21069;-70
2023/03/06 03:38:28;;;;;;;39.15;17.50;;;;;;;;;;4999922;28;20065;-71
2023/03/06 03:40:54;;;;;;;38.80;18.08;;;;;;;;;;4985943;28;20105;-72
2023/03/06 03:43:19;;;;;;;44.55;18.10;;;;;;;;;;4990199;28;20042;-70
2023/03/06 03:45:45;;;;;;;43.47;17.10;;;;;;;;;;4978343;28;20043;-70
2023/03/06 03:48:11;;;;;;;36.17;17.13;;;;;;;;;;4976506;28;20190;-70
2023/03/06 03:50:37;;;;;;;38.60;17.48;;;;;;;;;;4975260;28;20042;-71
2023/03/06 03:53:03;;;;;;;34.58;16.85;;;;;;;;;;4998237;28;20081;-71
2023/03/06 03:55:29;;;;;;;32.90;15.40;;;;;;;;;;5000408;28;20050;-72
2023/03/06 03:57:55;;;;;;;34.22;16.65;;;;;;;;;;4978706;28;20053;-70
2023/03/06 04:00:21;;;;;;;34.40;17.25;;;;;;;;;;4980796;28;20054;-71
2023/03/06 04:02:58;;;;;;;38.97;17.42;;;;;;;;;;4970166;28;20042;-71
2023/03/06 04:05:29;;;;;;;33.67;15.82;;;;;;;;;;4980628;28;20042;-72
2023/03/06 04:07:56;;;;;;;42.33;16.73;;;;;;;;;;4983324;28;20134;-70
2023/03/06 04:10:21;;;;;;;36.00;16.20;;;;;;;;;;4992586;28;20141;-71
2023/03/06 04:12:48;;;;;;;31.85;16.67;;;;;;;;;;4985630;28;20043;-71
2023/03/06 04:15:13;;;;;;;39.55;17.20;;;;;;;;;;4988205;28;20076;-70
2023/03/06 04:17:39;;;;;;;41.33;16.27;;;;;;;;;;5005110;28;20034;-72
2023/03/06 04:20:09;;;;;;;43.25;16.45;;;;;;;;;;4989637;28;20389;-72
2023/03/06 04:22:35;;;;;;;36.35;17.02;;;;;;;;;;4998781;28;20132;-71
2023/03/06 04:25:00;;;;;;;37.13;16.80;;;;;;;;;;4994675;28;20276;-72
2023/03/06 04:27:26;;;;;;;37.78;17.33;;;;;;;;;;4994655;28;20823;-71
2023/03/06 04:29:55;;;;;;;36.63;17.20;;;;;;;;;;5009049;28;20053;-71
2023/03/06 04:32:21;;;;;;;37.35;17.33;;;;;;;;;;4993062;28;20085;-72
2023/03/06 04:34:47;;;;;;;43.28;19.85;;;;;;;;;;4986598;28;20055;-71
2023/03/06 04:37:21;;;;;;;41.50;18.15;;;;;;;;;;4985066;28;20046;-73
2023/03/06 04:39:48;;;;;;;38.80;17.33;;;;;;;;;;5014076;28;20107;-71
2023/03/06 04:42:13;;;;;;;41.67;18.65;;;;;;;;;;4995780;28;20057;-72
2023/03/06 04:44:39;;;;;;;35.20;17.15;;;;;;;;;;4983051;28;20062;-71
2023/03/06 04:47:05;;;;;;;38.05;17.38;;;;;;;;;;4988448;28;20108;-71
2023/03/06 04:49:30;;;;;;;40.75;17.38;;;;;;;;;;4993725;28;20536;-71
2023/03/06 04:51:56;;;;;;;40.88;17.58;;;;;;;;;;4990225;28;20046;-70
2023/03/06 04:54:21;;;;;;;39.50;17.73;;;;;;;;;;4987287;28;20056;-70
2023/03/06 04:56:47;;;;;;;33.28;16.40;;;;;;;;;;4994213;28;20440;-71
2023/03/06 04:59:12;;;;;;;46.50;16.23;;;;;;;;;;4988768;28;20045;-70
2023/03/06 05:01:37;;;;;;;34.28;16.65;;;;;;;;;;4986827;28;20050;-71
2023/03/06 05:04:03;;;;;;;30.42;15.57;;;;;;;;;;4994550;28;20132;-71
2023/03/06 05:06:28;;;;;;;39.95;16.48;;;;;;;;;;4987425;28;20133;-70
2023/03/06 05:08:54;;;;;;;36.88;16.67;;;;;;;;;;4988933;28;20230;-72
2023/03/06 05:11:19;;;;;;;33.55;16.30;;;;;;;;;;4989252;28;20536;-71
2023/03/06 05:13:45;;;;;;;36.85;16.83;;;;;;;;;;4989592;28;20045;-71
2023/03/06 05:16:10;;;;;;;44.92;17.95;;;;;;;;;;4984169;28;20069;-70
2023/03/06 05:18:36;;;;;;;39.70;17.63;;;;;;;;;;4987867;28;20408;-70
2023/03/06 05:21:02;;;;;;;37.92;16.45;;;;;;;;;;4987535;28;20054;-71
2023/03/06 05:23:29;;;;;;;32.63;14.68;;;;;;;;;;4990364;28;20104;-72
2023/03/06 05:25:56;;;;;;;31.63;15.38;;;;;;;;;;4987881;28;20049;-71
2023/03/06 05:28:21;;;;;;;35.60;15.30;;;;;;;;;;4986677;28;20050;-70
2023/03/06 05:30:47;;;;;;;29.60;15.25;;;;;;;;;;5005787;28;20136;-69
2023/03/06 05:33:13;;;;;;;35.75;16.20;;;;;;;;;;4991864;28;20457;-70
2023/03/06 05:35:38;;;;;;;34.50;15.68;;;;;;;;;;4993300;28;20516;-70
2023/03/06 05:38:04;;;;;;;32.92;16.67;;;;;;;;;;4988606;28;20408;-70
2023/03/06 05:40:29;;;;;;;34.70;15.45;;;;;;;;;;4992552;28;20124;-70
2023/03/06 05:42:54;;;;;;;36.72;15.55;;;;;;;;;;4991893;28;20058;-71
2023/03/06 05:45:20;;;;;;;30.38;15.02;;;;;;;;;;4988536;28;20515;-70
2023/03/06 05:47:46;;;;;;;30.25;14.63;;;;;;;;;;5001094;28;20727;-74
2023/03/06 05:50:12;;;;;;;33.95;15.73;;;;;;;;;;4984922;28;20050;-70
2023/03/06 05:52:38;;;;;;;31.48;13.35;;;;;;;;;;4989331;28;20053;-70
2023/03/06 05:55:04;;;;;;;30.23;15.15;;;;;;;;;;4987430;28;20619;-73
2023/03/06 05:57:30;;;;;;;31.70;14.65;;;;;;;;;;4990305;28;20046;-70
2023/03/06 05:59:55;;;;;;;36.60;14.32;;;;;;;;;;4986173;28;20181;-71
2023/03/06 06:02:21;;;;;;;34.30;16.05;;;;;;;;;;4989992;28;20505;-74
2023/03/06 06:04:46;;;;;;;36.67;15.45;;;;;;;;;;4987114;28;20046;-70
2023/03/06 06:07:14;;;;;;;37.80;16.70;;;;;;;;;;4987193;28;20069;-72
2023/03/06 06:09:39;;;;;;;37.40;16.23;;;;;;;;;;4988177;28;20092;-70
2023/03/06 06:12:05;;;;;;;35.60;16.35;;;;;;;;;;4988407;28;20058;-71
2023/03/06 06:14:33;;;;;;;32.35;15.57;;;;;;;;;;4985349;28;20050;-72
2023/03/06 06:16:58;;;;;;;42.97;17.17;;;;;;;;;;4984436;28;20322;-72
2023/03/06 06:19:28;;;;;;;35.60;16.80;;;;;;;;;;4983563;28;20503;-73
2023/03/06 06:21:53;;;;;;;35.33;16.15;;;;;;;;;;4983601;28;20046;-71
2023/03/06 06:24:21;;;;;;;37.83;15.77;;;;;;;;;;4983774;28;20939;-72
2023/03/06 06:26:49;;;;;;;35.85;14.90;;;;;;;;;;4984245;28;20060;-73
2023/03/06 06:29:14;;;;;;;39.00;16.35;;;;;;;;;;4983275;28;20125;-72
2023/03/06 06:31:40;;;;;;;35.40;16.95;;;;;;;;;;4986069;28;20570;-72
2023/03/06 06:34:08;;;;;;;34.17;16.58;;;;;;;;;;4995084;28;20042;-74
2023/03/06 06:36:34;;;;;;;34.33;16.67;;;;;;;;;;4992903;28;20053;-71
2023/03/06 06:38:59;;;;;;;35.50;15.82;;;;;;;;;;5000318;28;20045;-72
2023/03/06 06:41:25;;;;;;;53.10;16.10;;;;;;;;;;5001670;28;20129;-72
2023/03/06 06:43:51;;;;;;;44.22;17.00;;;;;;;;;;4986060;28;20153;-73
2023/03/06 06:46:16;;;;;;;36.15;15.68;;;;;;;;;;4982818;28;20412;-72
2023/03/06 06:48:42;;;;;;;35.88;15.13;;;;;;;;;;4988932;28;20082;-70
2023/03/06 06:51:07;;;;;;;38.88;15.68;;;;;;;;;;4990169;28;20204;-70
2023/03/06 06:53:33;;;;;;;29.27;15.50;;;;;;;;;;4985113;28;20041;-71
2023/03/06 06:55:59;;;;;;;33.63;15.45;;;;;;;;;;4980252;28;20881;-71
2023/03/06 06:58:25;;;;;;;37.65;16.08;;;;;;;;;;4980734;28;20050;-72
2023/03/06 07:00:51;;;;;;;36.05;16.15;;;;;;;;;;4982094;28;20088;-71
2023/03/06 07:03:17;;;;;;;32.85;15.15;;;;;;;;;;4997655;28;20050;-70
2023/03/06 07:05:42;;;;;;;32.92;14.68;;;;;;;;;;4983646;28;20042;-73
2023/03/06 07:08:07;;;;;;;26.75;14.43;;;;;;;;;;4980132;28;20050;-71
2023/03/06 07:10:34;;;;;;;30.58;14.55;;;;;;;;;;4981018;28;20049;-73
2023/03/06 07:13:00;;;;;;;34.67;14.60;;;;;;;;;;4981961;28;20061;-72
2023/03/06 07:15:26;;;;;;;36.70;16.02;;;;;;;;;;4989464;28;20489;-71
2023/03/06 07:17:52;;;;;;;34.60;15.95;;;;;;;;;;4981404;28;20045;-72
2023/03/06 07:20:19;;;;;;;32.85;15.13;;;;;;;;;;4981992;28;20058;-71
2023/03/06 07:22:45;;;;;;;39.17;16.70;;;;;;;;;;4982026;28;20038;-72
2023/03/06 07:25:10;;;;;;;34.05;17.60;;;;;;;;;;5001011;28;20072;-70
2023/03/06 07:27:36;;;;;;;38.90;16.10;;;;;;;;;;4986963;28;20115;-70
2023/03/06 07:30:01;;;;;;;35.45;17.25;;;;;;;;;;4986584;28;20408;-70
2023/03/06 07:32:27;;;;;;;29.80;15.57;;;;;;;;;;4984941;28;20046;-70
2023/03/06 07:34:52;;;;;;;37.67;17.00;;;;;;;;;;4994239;28;20085;-72
2023/03/06 07:37:17;;;;;;;40.95;15.77;;;;;;;;;;4985663;28;20145;-71
2023/03/06 07:39:43;;;;;;;36.40;16.30;;;;;;;;;;4994697;28;20038;-71
2023/03/06 07:42:13;;;;;;;38.83;17.25;;;;;;;;;;4993884;28;20050;-74
2023/03/06 07:44:45;;;;;;;38.47;17.85;;;;;;;;;;4990412;28;20056;-71
2023/03/06 07:47:13;;;;;;;36.35;16.13;;;;;;;;;;4992818;28;20058;-71
2023/03/06 07:49:39;;;;;;;33.60;16.10;;;;;;;;;;4983086;28;20066;-74
2023/03/06 07:52:04;;;;;;;34.10;16.85;;;;;;;;;;4982539;28;20149;-70
2023/03/06 07:54:31;;;;;;;39.63;17.48;;;;;;;;;;4996427;28;20103;-72
2023/03/06 07:56:57;;;;;;;37.10;16.98;;;;;;;;;;4996432;28;20053;-71
2023/03/06 07:59:23;;;;;;;36.95;16.17;;;;;;;;;;4992763;28;20047;-70
2023/03/06 08:01:48;;;;;;;36.70;15.65;;;;;;;;;;4985651;28;20451;-73
2023/03/06 08:04:13;;;;;;;33.33;17.02;;;;;;;;;;4983222;28;20424;-70
2023/03/06 08:06:39;;;;;;;37.00;16.70;;;;;;;;;;4986855;28;20057;-70
2023/03/06 08:09:04;;;;;;;32.10;15.63;;;;;;;;;;4997088;28;20137;-70
2023/03/06 08:11:32;;;;;;;35.85;16.35;;;;;;;;;;4994507;28;20145;-70
2023/03/06 08:13:58;;;;;;;31.48;15.48;;;;;;;;;;4984674;28;20122;-71
2023/03/06 08:16:26;;;;;;;34.65;16.15;;;;;;;;;;4984439;28;20050;-71
2023/03/06 08:18:52;;;;;;;38.00;15.95;;;;;;;;;;4995495;28;20092;-72
2023/03/06 08:21:20;;;;;;;32.95;15.60;;;;;;;;;;4997897;28;20136;-74
2023/03/06 08:23:46;;;;;;;37.42;16.08;;;;;;;;;;4983632;28;20042;-72
2023/03/06 08:26:20;;;;;;;36.30;16.35;;;;;;;;;;4984945;28;20058;-70
2023/03/06 08:28:46;;;;;;;36.20;16.10;;;;;;;;;;4984083;28;20070;-70
2023/03/06 08:31:15;;;;;;;33.35;16.35;;;;;;;;;;4993141;28;20077;-69
2023/03/06 08:33:40;;;;;;;33.45;14.93;;;;;;;;;;4991522;28;20074;-70
2023/03/06 08:36:06;;;;;;;36.05;14.57;;;;;;;;;;4983656;28;20081;-70
2023/03/06 08:38:32;;;;;;;30.02;13.25;;;;;;;;;;4984007;28;20049;-72
2023/03/06 08:40:57;;;;;;;29.42;14.68;;;;;;;;;;4990805;28;20050;-70
2023/03/06 08:43:22;;;;;;;34.42;15.88;;;;;;;;;;5001467;28;20057;-69
2023/03/06 08:45:53;;;;;;;31.83;14.27;;;;;;;;;;4983885;28;20065;-69
2023/03/06 08:48:18;;;;;;;32.80;15.23;;;;;;;;;;4987501;28;20045;-69
2023/03/06 08:50:43;;;;;;;29.83;14.68;;;;;;;;;;4990954;28;20517;-71
2023/03/06 08:53:09;;;;;;;32.65;14.18;;;;;;;;;;4993766;28;20065;-73
2023/03/06 08:55:37;;;;;;;33.50;14.02;;;;;;;;;;4994031;28;20073;-70
2023/03/06 08:58:03;;;;;;;32.85;14.38;;;;;;;;;;4992093;28;22243;-71
2023/03/06 09:00:30;;;;;;;22.40;12.13;;;;;;;;;;4990646;28;20141;-69
2023/03/06 09:02:55;;;;;;;20.63;11.13;;;;;;;;;;4996640;28;20064;-69
2023/03/06 09:05:21;;;;;;;24.20;11.95;;;;;;;;;;5000896;28;20489;-70
2023/03/06 09:07:46;;;;;;;22.00;11.50;;;;;;;;;;4989510;28;20038;-71
2023/03/06 09:10:14;;;;;;;18.83;10.00;;;;;;;;;;4986340;28;20050;-70
2023/03/06 09:12:39;;;;;;;23.13;10.70;;;;;;;;;;4982784;28;20452;-71
2023/03/06 09:15:05;;;;;;;19.58;10.23;;;;;;;;;;4996332;28;20107;-70
2023/03/06 09:17:31;;;;;;;22.35;10.13;;;;;;;;;;4990963;28;20050;-69
2023/03/06 09:19:56;;;;;;;17.70;9.45;;;;;;;;;;4985460;28;20092;-72
2023/03/06 09:22:21;;;;;;;20.25;9.85;;;;;;;;;;4989042;28;20046;-72
2023/03/06 09:24:47;;;;;;;17.08;9.10;;;;;;;;;;4991295;28;20655;-70
2023/03/06 09:27:13;;;;;;;19.90;9.57;;;;;;;;;;4999985;28;20053;-71
2023/03/06 09:29:38;;;;;;;20.25;9.55;;;;;;;;;;4985850;28;20056;-70
2023/03/06 09:32:04;;;;;;;18.23;9.55;;;;;;;;;;4982004;28;20085;-69
2023/03/06 09:34:29;;;;;;;16.92;9.68;;;;;;;;;;4990661;28;21034;-69
2023/03/06 09:36:55;;;;;;;21.73;9.82;;;;;;;;;;4997841;28;20189;-69
2023/03/06 09:39:20;;;;;;;17.73;6.78;;;;;;;;;;4991423;28;20190;-69
2023/03/06 09:41:48;;;;;;;17.02;8.98;;;;;;;;;;5000134;28;20119;-69
2023/03/06 09:44:17;;;;;;;12.52;7.22;;;;;;;;;;4984669;28;20492;-69
2023/03/06 09:47:07;;;;;;;18.00;9.00;;;;;;;;;;4993491;28;20057;-68
2023/03/06 09:49:36;;;;;;;19.60;8.82;;;;;;;;;;4996796;28;20082;-69
2023/03/06 09:52:29;;;;;;;12.05;6.00;;;;;;;;;;4984742;28;20483;-70
2023/03/06 09:54:59;;;;;;;17.63;8.60;;;;;;;;;;4987282;28;20046;-70
2023/03/06 09:57:34;;;;;;;14.38;7.13;;;;;;;;;;4994446;28;20058;-71
2023/03/06 10:00:03;;;;;;;14.45;7.00;;;;;;;;;;4994412;28;20537;-70
2023/03/06 10:02:50;;;;;;;10.88;6.57;;;;;;;;;;4986401;28;20049;-70
2023/03/06 10:05:24;;;;;;;13.00;7.47;;;;;;;;;;4990200;28;20099;-67
2023/03/06 10:07:57;;;;;;;10.50;5.65;;;;;;;;;;4985541;28;20068;-72
2023/03/06 10:10:27;;;;;;;9.80;6.60;;;;;;;;;;4988841;28;20125;-69
2023/03/06 10:13:02;;;;;;;19.13;6.10;;;;;;;;;;5009784;28;20497;-69
2023/03/06 10:15:34;;;;;;;8.93;5.53;;;;;;;;;;4989411;28;20120;-70
2023/03/06 10:18:02;;;;;;;6.75;5.25;;;;;;;;;;4982455;28;20042;-69
2023/03/06 10:20:35;;;;;;;13.65;6.53;;;;;;;;;;4993232;28;20137;-70
2023/03/06 10:23:24;;;;;;;17.88;8.65;;;;;;;;;;4986860;28;20460;-72
2023/03/06 10:26:06;;;;;;;12.52;7.60;;;;;;;;;;4987342;28;20413;-70
2023/03/06 10:28:41;;;;;;;12.73;7.47;;;;;;;;;;4983663;28;20050;-70
2023/03/06 10:31:19;;;;;;;13.30;6.82;;;;;;;;;;4995869;28;20136;-70
2023/03/06 10:34:02;;;;;;;7.22;5.60;;;;;;;;;;4996929;28;20064;-70
2023/03/06 10:36:28;;;;;;;16.30;8.40;;;;;;;;;;5008871;28;20054;-70
2023/03/06 10:39:01;;;;;;;20.15;8.73;;;;;;;;;;4992545;28;20461;-69
2023/03/06 10:41:31;;;;;;;13.05;5.97;;;;;;;;;;4988376;28;20060;-70
2023/03/06 10:43:59;;;;;;;13.68;7.35;;;;;;;;;;4993906;28;20128;-70
2023/03/06 10:46:38;;;;;;;19.20;7.57;;;;;;;;;;4993845;28;20069;-71
2023/03/06 10:49:24;;;;;;;18.27;8.45;;;;;;;;;;4993411;28;20045;-71
2023/03/06 10:52:13;;;;;;;9.35;4.10;;;;;;;;;;4994902;28;20042;-70
2023/03/06 10:54:41;;;;;;;17.38;8.45;;;;;;;;;;4999546;28;20137;-70
2023/03/06 10:57:27;;;;;;;11.65;6.93;;;;;;;;;;5006266;28;20065;-72
2023/03/06 11:00:03;;;;;;;16.98;8.90;;;;;;;;;;4997846;28;20140;-71
2023/03/06 11:02:31;;;;;;;18.38;7.70;;;;;;;;;;4992537;28;20089;-71
2023/03/06 11:04:59;;;;;;;11.77;7.10;;;;;;;;;;5003589;28;20222;-70
2023/03/06 11:07:27;;;;;;;13.45;8.10;;;;;;;;;;4989851;28;20042;-72
2023/03/06 11:09:55;;;;;;;8.85;5.97;;;;;;;;;;4983160;28;20057;-71
2023/03/06 11:12:24;;;;;;;7.72;4.47;;;;;;;;;;4987965;28;20062;-71
2023/03/06 11:15:13;;;;;;;11.02;5.85;;;;;;;;;;4989176;28;20041;-72
2023/03/06 11:17:53;;;;;;;13.30;5.60;;;;;;;;;;4990704;28;20127;-70
2023/03/06 11:20:44;;;;;;;11.43;6.18;;;;;;;;;;4999441;28;20050;-70
2023/03/06 11:23:17;;;;;;;5.45;3.97;;;;;;;;;;4982010;28;20058;-72
2023/03/06 11:25:49;;;;;;;11.38;7.45;;;;;;;;;;4992693;28;20407;-70
2023/03/06 11:28:39;;;;;;;9.93;5.57;;;;;;;;;;4999405;28;20049;-71
2023/03/06 11:31:11;;;;;;;13.50;7.20;;;;;;;;;;4984352;28;20053;-73
2023/03/06 11:33:55;;;;;;;14.60;6.80;;;;;;;;;;4983077;28;20053;-72
2023/03/06 11:36:32;;;;;;;12.55;7.20;;;;;;;;;;5007986;28;20160;-69
2023/03/06 11:38:58;;;;;;;15.60;6.88;;;;;;;;;;4985857;28;20043;-71
2023/03/06 11:41:44;;;;;;;8.63;5.93;;;;;;;;;;4980890;28;20082;-71
2023/03/06 11:44:35;;;;;;;10.35;5.82;;;;;;;;;;4988414;28;20068;-72
2023/03/06 11:47:41;;;;;;;8.77;4.82;;;;;;;;;;4981467;28;20058;-71
2023/03/06 11:50:19;;;;;;;7.10;4.80;;;;;;;;;;4988158;28;20043;-70
2023/03/06 11:52:51;;;;;;;16.27;6.93;;;;;;;;;;4986478;28;20073;-70
2023/03/06 11:55:29;;;;;;;14.73;7.32;;;;;;;;;;4967312;28;20082;-70
2023/03/06 11:58:22;;;;;;;8.57;6.20;;;;;;;;;;4978963;28;20057;-72
2023/03/06 12:01:08;;;;;;;18.23;6.95;;;;;;;;;;4979289;28;20142;-71
2023/03/06 12:03:57;;;;;;;9.45;4.13;;;;;;;;;;4980745;28;20050;-70
2023/03/06 12:06:44;;;;;;;13.00;6.82;;;;;;;;;;5005753;28;20515;-70
2023/03/06 12:09:13;;;;;;;12.70;5.60;;;;;;;;;;4982321;28;20137;-75
2023/03/06 12:11:47;;;;;;;20.33;8.23;;;;;;;;;;4999061;28;20046;-73
2023/03/06 12:14:34;;;;;;;9.15;5.75;;;;;;;;;;4983311;28;20526;-70
2023/03/06 12:17:11;;;;;;;5.75;4.82;;;;;;;;;;4980943;28;20042;-72
2023/03/06 12:19:42;;;;;;;12.20;7.60;;;;;;;;;;4980188;28;20050;-73
2023/03/06 12:22:46;;;;;;;15.95;6.63;;;;;;;;;;4986747;28;20064;-72
2023/03/06 12:25:20;;;;;;;18.38;6.63;;;;;;;;;;4980655;28;20046;-70
2023/03/06 12:28:07;;;;;;;9.90;5.68;;;;;;;;;;4980518;28;20038;-72
2023/03/06 12:30:40;;;;;;;11.70;5.50;;;;;;;;;;4982207;28;20057;-70
2023/03/06 12:33:34;;;;;;;12.40;7.38;;;;;;;;;;4995027;28;20047;-70
2023/03/06 12:36:26;;;;;;;11.25;6.90;;;;;;;;;;4987050;28;20137;-71
2023/03/06 12:38:51;;;;;;;12.10;7.85;;;;;;;;;;4981530;28;20517;-70
2023/03/06 12:41:23;;;;;;;9.80;5.38;;;;;;;;;;4980693;28;20134;-70
2023/03/06 12:43:54;;;;;;;11.45;4.97;;;;;;;;;;4986091;28;20053;-70
2023/03/06 12:46:25;;;;;;;13.10;6.90;;;;;;;;;;4983130;28;20042;-70
2023/03/06 12:49:03;;;;;;;16.00;6.57;;;;;;;;;;4994526;28;20057;-70
2023/03/06 12:51:30;;;;;;;8.30;4.57;;;;;;;;;;4983249;28;20046;-69
2023/03/06 12:53:56;;;;;;;6.97;4.93;;;;;;;;;;4983457;28;20588;-69
2023/03/06 12:56:22;;;;;;;11.55;6.70;;;;;;;;;;4980029;28;20069;-71
2023/03/06 12:58:54;;;;;;;13.90;6.18;;;;;;;;;;4983917;28;20045;-72
2023/03/06 13:01:34;;;;;;;14.93;8.55;;;;;;;;;;4981166;28;20054;-71
2023/03/06 13:04:15;;;;;;;18.48;8.88;;;;;;;;;;4984831;28;20049;-70
2023/03/06 13:07:08;;;;;;;10.32;5.85;;;;;;;;;;4993647;28;20049;-70
2023/03/06 13:09:52;;;;;;;18.77;8.10;;;;;;;;;;4982004;28;20511;-69
2023/03/06 13:12:24;;;;;;;15.85;8.85;;;;;;;;;;5004814;28;20054;-70
2023/03/06 13:14:53;;;;;;;14.43;8.15;;;;;;;;;;4982868;28;20060;-71
2023/03/06 13:17:21;;;;;;;9.38;4.43;;;;;;;;;;4991328;28;20068;-72
2023/03/06 13:19:48;;;;;;;16.40;7.57;;;;;;;;;;4989001;28;20268;-71
2023/03/06 13:25:31;;;;;;;15.85;8.38;;;;;;;;;;4995653;23;20054;-72
2023/03/06 13:27:56;;;;;;;17.33;6.30;;;;;;;;;;4993893;28;20046;-72
2023/03/06 13:30:37;;;;;;;16.75;8.27;;;;;;;;;;4988769;28;20050;-70
2023/03/06 13:33:21;;;;;;;13.23;6.63;;;;;;;;;;4971947;28;20053;-71
2023/03/06 13:35:51;;;;;;;14.30;8.90;;;;;;;;;;4988993;28;20148;-72
2023/03/06 13:38:33;;;;;;;18.13;8.60;;;;;;;;;;4989831;28;20820;-74
2023/03/06 13:41:26;;;;;;;13.98;8.43;;;;;;;;;;4983818;28;20050;-70
2023/03/06 13:44:24;;;;;;;16.80;10.27;;;;;;;;;;4984744;28;20052;-71
2023/03/06 13:46:58;;;;;;;6.97;4.70;;;;;;;;;;4953998;28;20039;-71
2023/03/06 13:49:25;;;;;;;15.82;7.07;;;;;;;;;;4989334;28;20111;-69
2023/03/06 13:51:50;;;;;;;20.23;8.38;;;;;;;;;;4981420;28;20080;-71
2023/03/06 13:54:22;;;;;;;13.50;5.82;;;;;;;;;;4984714;28;20118;-73
2023/03/06 13:56:59;;;;;;;15.52;7.93;;;;;;;;;;4985256;28;20632;-71
2023/03/06 13:59:40;;;;;;;12.73;7.55;;;;;;;;;;4975778;28;20149;-73
2023/03/06 14:02:43;;;;;;;13.63;7.30;;;;;;;;;;4982568;28;20058;-72
2023/03/06 14:05:12;;;;;;;15.73;6.38;;;;;;;;;;4976635;28;20170;-73
2023/03/06 14:07:46;;;;;;;10.90;5.75;;;;;;;;;;4981150;28;20149;-74
2023/03/06 14:10:12;;;;;;;18.40;7.93;;;;;;;;;;4978431;28;20054;-72
2023/03/06 14:12:42;;;;;;;23.40;6.95;;;;;;;;;;4986260;28;20112;-71
2023/03/06 14:15:21;;;;;;;13.48;7.03;;;;;;;;;;4975907;28;20120;-70
2023/03/06 14:18:01;;;;;;;11.10;7.65;;;;;;;;;;4971285;28;20792;-72
2023/03/06 14:20:41;;;;;;;12.13;6.05;;;;;;;;;;4982690;28;20047;-74
2023/03/06 14:23:28;;;;;;;13.32;6.65;;;;;;;;;;4978089;28;20054;-70
2023/03/06 14:26:16;;;;;;;11.00;7.05;;;;;;;;;;4965611;28;20877;-71
2023/03/06 14:28:51;;;;;;;17.38;10.50;;;;;;;;;;4981312;28;20046;-71
2023/03/06 14:31:22;;;;;;;14.20;7.20;;;;;;;;;;4982843;28;20049;-72
2023/03/06 14:33:53;;;;;;;12.02;7.18;;;;;;;;;;4985279;28;20674;-71
2023/03/06 14:36:23;;;;;;;6.50;4.25;;;;;;;;;;4983825;28;20576;-72
2023/03/06 14:38:57;;;;;;;11.05;6.75;;;;;;;;;;4988427;28;20115;-70
2023/03/06 14:41:31;;;;;;;8.05;5.30;;;;;;;;;;4982152;28;20472;-73
2023/03/06 14:44:08;;;;;;;13.88;5.35;;;;;;;;;;4986222;28;20037;-70